sensor_id;sensor_type;location;lat;lon;timestamp;temperature;humidity
14401;DHT22;7285;50.894;5.462;2023-05-07T00:00:48;13.30;1.00
14401;DHT22;7285;50.894;5.462;2023-05-07T00:03:15;13.30;1.00
14401;DHT22;7285;50.894;5.462;2023-05-07T00:05:42;13.30;1.00
14401;DHT22;7285;50.894;5.462;2023-05-07T00:08:09;13.30;30.00
14401;DHT22;7285;50.894;5.462;2023-05-07T00:10:35;13.40;99.90
14401;DHT22;7285;50.894;5.462;2023-05-07T00:13:02;13.40;99.90
14401;DHT22;7285;50.894;5.462;2023-05-07T00:15:29;13.40;99.90
14401;DHT22;7285;50.894;5.462;2023-05-07T00:17:58;13.40;99.90
14401;DHT22;7285;50.894;5.462;2023-05-07T00:20:25;13.40;99.90
14401;DHT22;7285;50.894;5.462;2023-05-07T00:22:52;13.40;99.90
14401;DHT22;7285;50.894;5.462;2023-05-07T00:25:19;13.40;99.90
14401;DHT22;7285;50.894;5.462;2023-05-07T00:27:46;13.40;99.90
14401;DHT22;7285;50.894;5.462;2023-05-07T00:30:13;13.40;1.00
14401;DHT22;7285;50.894;5.462;2023-05-07T00:32:40;13.40;1.00
14401;DHT22;7285;50.894;5.462;2023-05-07T00:35:09;13.40;1.00
14401;DHT22;7285;50.894;5.462;2023-05-07T00:37:36;13.40;1.00
14401;DHT22;7285;50.894;5.462;2023-05-07T00:40:03;13.40;1.00
14401;DHT22;7285;50.894;5.462;2023-05-07T00:42:32;13.40;1.00
14401;DHT22;7285;50.894;5.462;2023-05-07T00:44:59;13.40;1.00
14401;DHT22;7285;50.894;5.462;2023-05-07T00:47:26;13.40;1.00
14401;DHT22;7285;50.894;5.462;2023-05-07T00:49:53;13.40;1.00
14401;DHT22;7285;50.894;5.462;2023-05-07T00:52:24;13.40;1.00
14401;DHT22;7285;50.894;5.462;2023-05-07T00:54:52;13.40;1.00
14401;DHT22;7285;50.894;5.462;2023-05-07T00:57:21;13.50;1.00
14401;DHT22;7285;50.894;5.462;2023-05-07T00:59:49;13.40;1.00
14401;DHT22;7285;50.894;5.462;2023-05-07T01:02:17;13.40;1.00
14401;DHT22;7285;50.894;5.462;2023-05-07T01:04:44;13.40;1.00
14401;DHT22;7285;50.894;5.462;2023-05-07T01:07:11;13.40;1.00
14401;DHT22;7285;50.894;5.462;2023-05-07T01:09:39;13.40;1.00
14401;DHT22;7285;50.894;5.462;2023-05-07T01:12:07;13.50;1.00
14401;DHT22;7285;50.894;5.462;2023-05-07T01:14:34;13.50;1.00
14401;DHT22;7285;50.894;5.462;2023-05-07T01:17:01;13.50;30.60
14401;DHT22;7285;50.894;5.462;2023-05-07T01:19:29;13.60;99.90
14401;DHT22;7285;50.894;5.462;2023-05-07T01:22:02;13.60;99.90
14401;DHT22;7285;50.894;5.462;2023-05-07T01:24:32;13.60;99.90
14401;DHT22;7285;50.894;5.462;2023-05-07T01:26:59;13.60;99.90
14401;DHT22;7285;50.894;5.462;2023-05-07T01:29:27;13.60;99.90
14401;DHT22;7285;50.894;5.462;2023-05-07T01:31:55;13.60;99.90
14401;DHT22;7285;50.894;5.462;2023-05-07T01:34:24;13.60;99.90
14401;DHT22;7285;50.894;5.462;2023-05-07T01:36:52;13.60;99.90
14401;DHT22;7285;50.894;5.462;2023-05-07T01:39:21;13.60;99.90
14401;DHT22;7285;50.894;5.462;2023-05-07T01:41:50;13.60;99.90
14401;DHT22;7285;50.894;5.462;2023-05-07T01:44:17;13.60;99.90
14401;DHT22;7285;50.894;5.462;2023-05-07T01:46:45;13.70;99.90
14401;DHT22;7285;50.894;5.462;2023-05-07T01:49:13;13.60;99.90
14401;DHT22;7285;50.894;5.462;2023-05-07T01:51:40;13.70;99.90
14401;DHT22;7285;50.894;5.462;2023-05-07T01:54:07;13.70;99.90
14401;DHT22;7285;50.894;5.462;2023-05-07T01:56:34;13.70;99.90
14401;DHT22;7285;50.894;5.462;2023-05-07T01:59:02;13.70;99.90
14401;DHT22;7285;50.894;5.462;2023-05-07T02:01:29;13.70;99.90
14401;DHT22;7285;50.894;5.462;2023-05-07T02:03:56;13.70;99.90
14401;DHT22;7285;50.894;5.462;2023-05-07T02:06:23;13.70;99.90
14401;DHT22;7285;50.894;5.462;2023-05-07T02:08:50;13.70;99.90
14401;DHT22;7285;50.894;5.462;2023-05-07T02:11:17;13.70;99.90
14401;DHT22;7285;50.894;5.462;2023-05-07T02:13:44;13.70;99.90
14401;DHT22;7285;50.894;5.462;2023-05-07T02:16:12;13.70;99.90
14401;DHT22;7285;50.894;5.462;2023-05-07T02:18:39;13.70;99.90
14401;DHT22;7285;50.894;5.462;2023-05-07T02:21:06;13.70;99.90
14401;DHT22;7285;50.894;5.462;2023-05-07T02:23:33;13.70;99.90
14401;DHT22;7285;50.894;5.462;2023-05-07T02:26:00;13.70;99.90
14401;DHT22;7285;50.894;5.462;2023-05-07T02:28:27;13.60;99.90
14401;DHT22;7285;50.894;5.462;2023-05-07T02:30:54;13.70;99.90
14401;DHT22;7285;50.894;5.462;2023-05-07T02:33:22;13.70;99.90
14401;DHT22;7285;50.894;5.462;2023-05-07T02:35:49;13.70;99.90
14401;DHT22;7285;50.894;5.462;2023-05-07T02:38:17;13.60;99.90
14401;DHT22;7285;50.894;5.462;2023-05-07T02:40:44;13.60;99.90
14401;DHT22;7285;50.894;5.462;2023-05-07T02:43:11;13.60;99.90
14401;DHT22;7285;50.894;5.462;2023-05-07T02:45:38;13.70;99.90
14401;DHT22;7285;50.894;5.462;2023-05-07T02:48:05;13.70;99.90
14401;DHT22;7285;50.894;5.462;2023-05-07T02:50:34;13.60;99.90
14401;DHT22;7285;50.894;5.462;2023-05-07T02:53:01;13.60;99.90
14401;DHT22;7285;50.894;5.462;2023-05-07T02:55:27;13.60;99.90
14401;DHT22;7285;50.894;5.462;2023-05-07T02:57:55;13.60;99.90
14401;DHT22;7285;50.894;5.462;2023-05-07T03:00:22;13.60;99.90
14401;DHT22;7285;50.894;5.462;2023-05-07T03:02:49;13.60;99.90
14401;DHT22;7285;50.894;5.462;2023-05-07T03:05:16;13.50;99.90
14401;DHT22;7285;50.894;5.462;2023-05-07T03:07:44;13.50;99.90
14401;DHT22;7285;50.894;5.462;2023-05-07T03:10:12;13.50;1.00
14401;DHT22;7285;50.894;5.462;2023-05-07T03:12:39;13.50;1.00
14401;DHT22;7285;50.894;5.462;2023-05-07T03:15:08;13.50;1.00
14401;DHT22;7285;50.894;5.462;2023-05-07T03:17:35;13.50;1.00
14401;DHT22;7285;50.894;5.462;2023-05-07T03:20:02;13.40;1.00
14401;DHT22;7285;50.894;5.462;2023-05-07T03:22:29;13.40;1.00
14401;DHT22;7285;50.894;5.462;2023-05-07T03:24:58;13.40;1.00
14401;DHT22;7285;50.894;5.462;2023-05-07T03:27:25;13.40;1.00
14401;DHT22;7285;50.894;5.462;2023-05-07T03:29:52;13.40;1.00
14401;DHT22;7285;50.894;5.462;2023-05-07T03:32:19;13.30;1.00
14401;DHT22;7285;50.894;5.462;2023-05-07T03:34:45;13.30;1.00
14401;DHT22;7285;50.894;5.462;2023-05-07T03:37:12;13.40;1.00
14401;DHT22;7285;50.894;5.462;2023-05-07T03:39:39;13.30;1.00
14401;DHT22;7285;50.894;5.462;2023-05-07T03:42:07;13.30;1.00
14401;DHT22;7285;50.894;5.462;2023-05-07T03:44:34;13.30;1.00
14401;DHT22;7285;50.894;5.462;2023-05-07T03:47:02;13.30;1.00
14401;DHT22;7285;50.894;5.462;2023-05-07T03:49:29;13.30;1.00
14401;DHT22;7285;50.894;5.462;2023-05-07T03:51:56;13.30;1.00
14401;DHT22;7285;50.894;5.462;2023-05-07T03:54:23;13.30;1.00
14401;DHT22;7285;50.894;5.462;2023-05-07T03:56:50;13.30;1.00
14401;DHT22;7285;50.894;5.462;2023-05-07T03:59:18;13.40;1.00
14401;DHT22;7285;50.894;5.462;2023-05-07T04:01:45;13.30;1.00
14401;DHT22;7285;50.894;5.462;2023-05-07T04:04:11;13.40;1.00
14401;DHT22;7285;50.894;5.462;2023-05-07T04:06:39;13.40;1.00
14401;DHT22;7285;50.894;5.462;2023-05-07T04:09:05;13.40;1.00
14401;DHT22;7285;50.894;5.462;2023-05-07T04:11:34;13.40;1.00
14401;DHT22;7285;50.894;5.462;2023-05-07T04:14:01;13.40;1.00
14401;DHT22;7285;50.894;5.462;2023-05-07T04:16:30;13.40;1.00
14401;DHT22;7285;50.894;5.462;2023-05-07T04:18:57;13.40;1.00
14401;DHT22;7285;50.894;5.462;2023-05-07T04:21:24;13.40;1.00
14401;DHT22;7285;50.894;5.462;2023-05-07T04:23:52;13.50;1.00
14401;DHT22;7285;50.894;5.462;2023-05-07T04:26:19;13.40;1.00
14401;DHT22;7285;50.894;5.462;2023-05-07T04:28:46;13.50;1.00
14401;DHT22;7285;50.894;5.462;2023-05-07T04:31:13;13.50;1.00
14401;DHT22;7285;50.894;5.462;2023-05-07T04:33:42;13.50;1.00
14401;DHT22;7285;50.894;5.462;2023-05-07T04:36:09;13.50;1.00
14401;DHT22;7285;50.894;5.462;2023-05-07T04:38:36;13.60;1.00
14401;DHT22;7285;50.894;5.462;2023-05-07T04:41:05;13.60;1.00
14401;DHT22;7285;50.894;5.462;2023-05-07T04:43:32;13.60;1.00
14401;DHT22;7285;50.894;5.462;2023-05-07T04:45:59;13.70;1.00
14401;DHT22;7285;50.894;5.462;2023-05-07T04:48:26;13.60;1.00
14401;DHT22;7285;50.894;5.462;2023-05-07T04:50:55;13.70;1.00
14401;DHT22;7285;50.894;5.462;2023-05-07T04:53:23;13.70;1.00
14401;DHT22;7285;50.894;5.462;2023-05-07T04:55:55;13.70;1.00
14401;DHT22;7285;50.894;5.462;2023-05-07T04:58:22;13.70;1.00
14401;DHT22;7285;50.894;5.462;2023-05-07T05:00:49;13.80;1.00
14401;DHT22;7285;50.894;5.462;2023-05-07T05:03:16;13.80;1.00
14401;DHT22;7285;50.894;5.462;2023-05-07T05:05:43;13.80;1.00
14401;DHT22;7285;50.894;5.462;2023-05-07T05:08:11;13.80;1.00
14401;DHT22;7285;50.894;5.462;2023-05-07T05:10:38;13.90;1.00
14401;DHT22;7285;50.894;5.462;2023-05-07T05:13:06;13.90;1.00
14401;DHT22;7285;50.894;5.462;2023-05-07T05:15:33;14.00;1.00
14401;DHT22;7285;50.894;5.462;2023-05-07T05:18:00;14.00;1.00
14401;DHT22;7285;50.894;5.462;2023-05-07T05:20:27;14.00;1.00
14401;DHT22;7285;50.894;5.462;2023-05-07T05:22:54;14.10;1.00
14401;DHT22;7285;50.894;5.462;2023-05-07T05:25:22;14.10;1.00
14401;DHT22;7285;50.894;5.462;2023-05-07T05:27:49;14.20;1.00
14401;DHT22;7285;50.894;5.462;2023-05-07T05:30:16;14.20;1.00
14401;DHT22;7285;50.894;5.462;2023-05-07T05:32:43;14.20;99.90
14401;DHT22;7285;50.894;5.462;2023-05-07T05:35:10;14.20;99.90
14401;DHT22;7285;50.894;5.462;2023-05-07T05:37:37;14.30;99.90
14401;DHT22;7285;50.894;5.462;2023-05-07T05:40:04;14.30;99.90
14401;DHT22;7285;50.894;5.462;2023-05-07T05:42:33;14.40;99.90
14401;DHT22;7285;50.894;5.462;2023-05-07T05:45:00;14.40;99.90
14401;DHT22;7285;50.894;5.462;2023-05-07T05:47:27;14.50;68.00
14401;DHT22;7285;50.894;5.462;2023-05-07T05:49:54;14.60;1.00
14401;DHT22;7285;50.894;5.462;2023-05-07T05:52:20;14.60;1.00
14401;DHT22;7285;50.894;5.462;2023-05-07T05:54:49;14.60;1.00
14401;DHT22;7285;50.894;5.462;2023-05-07T05:57:16;14.70;1.00
14401;DHT22;7285;50.894;5.462;2023-05-07T05:59:44;14.80;1.00
14401;DHT22;7285;50.894;5.462;2023-05-07T06:02:12;14.90;1.00
14401;DHT22;7285;50.894;5.462;2023-05-07T06:04:39;14.90;99.90
14401;DHT22;7285;50.894;5.462;2023-05-07T06:07:08;15.00;99.90
14401;DHT22;7285;50.894;5.462;2023-05-07T06:09:34;15.10;99.90
14401;DHT22;7285;50.894;5.462;2023-05-07T06:12:01;15.10;1.00
14401;DHT22;7285;50.894;5.462;2023-05-07T06:14:28;15.20;1.00
14401;DHT22;7285;50.894;5.462;2023-05-07T06:16:57;15.20;99.90
14401;DHT22;7285;50.894;5.462;2023-05-07T06:19:24;15.30;99.90
14401;DHT22;7285;50.894;5.462;2023-05-07T06:21:52;15.30;1.00
14401;DHT22;7285;50.894;5.462;2023-05-07T06:24:19;15.40;99.90
14401;DHT22;7285;50.894;5.462;2023-05-07T06:26:46;15.40;1.00
14401;DHT22;7285;50.894;5.462;2023-05-07T06:29:13;15.50;99.90
14401;DHT22;7285;50.894;5.462;2023-05-07T06:31:39;15.60;1.00
14401;DHT22;7285;50.894;5.462;2023-05-07T06:34:08;15.70;1.00
14401;DHT22;7285;50.894;5.462;2023-05-07T06:36:35;15.80;1.00
14401;DHT22;7285;50.894;5.462;2023-05-07T06:39:02;15.90;45.80
14401;DHT22;7285;50.894;5.462;2023-05-07T06:41:29;16.00;1.00
14401;DHT22;7285;50.894;5.462;2023-05-07T06:43:56;16.20;1.00
14401;DHT22;7285;50.894;5.462;2023-05-07T06:46:23;16.40;99.90
14401;DHT22;7285;50.894;5.462;2023-05-07T06:48:50;16.50;1.00
14401;DHT22;7285;50.894;5.462;2023-05-07T06:51:19;16.60;1.00
14401;DHT22;7285;50.894;5.462;2023-05-07T06:53:46;16.70;1.00
14401;DHT22;7285;50.894;5.462;2023-05-07T06:56:12;16.80;1.00
14401;DHT22;7285;50.894;5.462;2023-05-07T06:58:39;16.90;47.80
14401;DHT22;7285;50.894;5.462;2023-05-07T07:01:06;16.90;1.00
14401;DHT22;7285;50.894;5.462;2023-05-07T07:03:33;17.00;1.00
14401;DHT22;7285;50.894;5.462;2023-05-07T07:06:00;17.10;32.30
14401;DHT22;7285;50.894;5.462;2023-05-07T07:08:30;17.10;16.00
14401;DHT22;7285;50.894;5.462;2023-05-07T07:10:57;17.10;1.00
14401;DHT22;7285;50.894;5.462;2023-05-07T07:13:24;17.20;1.00
14401;DHT22;7285;50.894;5.462;2023-05-07T07:15:52;17.30;3.80
14401;DHT22;7285;50.894;5.462;2023-05-07T07:18:19;17.20;99.90
14401;DHT22;7285;50.894;5.462;2023-05-07T07:20:46;17.30;1.00
14401;DHT22;7285;50.894;5.462;2023-05-07T07:23:13;17.50;54.10
14401;DHT22;7285;50.894;5.462;2023-05-07T07:25:42;17.60;1.00
14401;DHT22;7285;50.894;5.462;2023-05-07T07:28:09;17.80;1.00
14401;DHT22;7285;50.894;5.462;2023-05-07T07:30:37;17.70;1.00
14401;DHT22;7285;50.894;5.462;2023-05-07T07:33:04;17.80;1.00
14401;DHT22;7285;50.894;5.462;2023-05-07T07:35:31;17.90;1.00
14401;DHT22;7285;50.894;5.462;2023-05-07T07:37:58;18.00;1.00
14401;DHT22;7285;50.894;5.462;2023-05-07T07:40:25;18.00;99.90
14401;DHT22;7285;50.894;5.462;2023-05-07T07:42:54;18.10;1.00
14401;DHT22;7285;50.894;5.462;2023-05-07T07:45:21;18.20;1.00
14401;DHT22;7285;50.894;5.462;2023-05-07T07:47:48;18.20;99.90
14401;DHT22;7285;50.894;5.462;2023-05-07T07:50:15;18.20;99.90
14401;DHT22;7285;50.894;5.462;2023-05-07T07:52:42;18.30;99.90
14401;DHT22;7285;50.894;5.462;2023-05-07T07:55:09;18.50;39.40
14401;DHT22;7285;50.894;5.462;2023-05-07T07:57:36;18.60;1.00
14401;DHT22;7285;50.894;5.462;2023-05-07T08:00:05;18.60;1.00
14401;DHT22;7285;50.894;5.462;2023-05-07T08:02:33;18.60;1.00
14401;DHT22;7285;50.894;5.462;2023-05-07T08:05:00;18.70;1.00
14401;DHT22;7285;50.894;5.462;2023-05-07T08:07:27;18.80;1.00
14401;DHT22;7285;50.894;5.462;2023-05-07T08:09:54;18.70;99.90
14401;DHT22;7285;50.894;5.462;2023-05-07T08:12:21;18.80;1.00
14401;DHT22;7285;50.894;5.462;2023-05-07T08:14:48;18.70;99.90
14401;DHT22;7285;50.894;5.462;2023-05-07T08:17:16;18.80;99.90
14401;DHT22;7285;50.894;5.462;2023-05-07T08:19:43;19.00;99.90
14401;DHT22;7285;50.894;5.462;2023-05-07T08:22:10;19.20;99.90
14401;DHT22;7285;50.894;5.462;2023-05-07T08:24:37;19.30;99.90
14401;DHT22;7285;50.894;5.462;2023-05-07T08:27:06;19.50;99.90
14401;DHT22;7285;50.894;5.462;2023-05-07T08:29:33;19.40;1.00
14401;DHT22;7285;50.894;5.462;2023-05-07T08:31:59;19.70;41.80
14401;DHT22;7285;50.894;5.462;2023-05-07T08:34:28;19.90;1.00
14401;DHT22;7285;50.894;5.462;2023-05-07T08:36:55;20.00;1.00
14401;DHT22;7285;50.894;5.462;2023-05-07T08:39:22;20.10;1.00
14401;DHT22;7285;50.894;5.462;2023-05-07T08:41:52;20.10;1.00
14401;DHT22;7285;50.894;5.462;2023-05-07T08:44:22;20.10;1.00
14401;DHT22;7285;50.894;5.462;2023-05-07T08:46:52;20.30;1.00
14401;DHT22;7285;50.894;5.462;2023-05-07T08:49:20;20.30;1.00
14401;DHT22;7285;50.894;5.462;2023-05-07T08:51:49;20.20;99.90
14401;DHT22;7285;50.894;5.462;2023-05-07T08:54:16;20.10;99.90
14401;DHT22;7285;50.894;5.462;2023-05-07T08:56:43;20.10;99.90
14401;DHT22;7285;50.894;5.462;2023-05-07T08:59:10;20.20;99.90
14401;DHT22;7285;50.894;5.462;2023-05-07T09:01:37;20.30;1.00
14401;DHT22;7285;50.894;5.462;2023-05-07T09:04:04;20.60;1.00
14401;DHT22;7285;50.894;5.462;2023-05-07T09:06:32;20.70;99.90
14401;DHT22;7285;50.894;5.462;2023-05-07T09:09:01;20.60;99.90
14401;DHT22;7285;50.894;5.462;2023-05-07T09:11:30;20.30;99.90
14401;DHT22;7285;50.894;5.462;2023-05-07T09:13:57;20.40;99.90
14401;DHT22;7285;50.894;5.462;2023-05-07T09:16:28;20.60;99.90
14401;DHT22;7285;50.894;5.462;2023-05-07T09:18:57;20.70;99.90
14401;DHT22;7285;50.894;5.462;2023-05-07T09:21:24;20.70;99.90
14401;DHT22;7285;50.894;5.462;2023-05-07T09:23:51;20.80;99.90
14401;DHT22;7285;50.894;5.462;2023-05-07T09:26:21;20.90;99.90
14401;DHT22;7285;50.894;5.462;2023-05-07T09:28:48;20.90;99.90
14401;DHT22;7285;50.894;5.462;2023-05-07T09:31:15;20.90;99.90
14401;DHT22;7285;50.894;5.462;2023-05-07T09:33:42;20.90;99.90
14401;DHT22;7285;50.894;5.462;2023-05-07T09:36:09;20.90;99.90
14401;DHT22;7285;50.894;5.462;2023-05-07T09:38:37;20.90;99.90
14401;DHT22;7285;50.894;5.462;2023-05-07T09:41:05;20.90;1.00
14401;DHT22;7285;50.894;5.462;2023-05-07T09:43:34;20.90;99.90
14401;DHT22;7285;50.894;5.462;2023-05-07T09:46:03;21.10;99.90
14401;DHT22;7285;50.894;5.462;2023-05-07T09:48:37;21.10;99.90
14401;DHT22;7285;50.894;5.462;2023-05-07T09:51:09;21.10;99.90
14401;DHT22;7285;50.894;5.462;2023-05-07T09:53:38;21.20;99.90
14401;DHT22;7285;50.894;5.462;2023-05-07T09:56:06;21.10;99.90
14401;DHT22;7285;50.894;5.462;2023-05-07T09:58:37;21.10;99.90
14401;DHT22;7285;50.894;5.462;2023-05-07T10:01:04;21.20;99.90
14401;DHT22;7285;50.894;5.462;2023-05-07T10:03:32;21.10;99.90
14401;DHT22;7285;50.894;5.462;2023-05-07T10:06:00;21.00;99.90
14401;DHT22;7285;50.894;5.462;2023-05-07T10:08:28;21.10;99.90
14401;DHT22;7285;50.894;5.462;2023-05-07T10:10:57;21.10;99.90
14401;DHT22;7285;50.894;5.462;2023-05-07T10:13:24;21.00;99.90
14401;DHT22;7285;50.894;5.462;2023-05-07T10:15:52;21.00;99.90
14401;DHT22;7285;50.894;5.462;2023-05-07T10:18:20;20.80;99.90
14401;DHT22;7285;50.894;5.462;2023-05-07T10:20:51;20.90;99.90
14401;DHT22;7285;50.894;5.462;2023-05-07T10:23:23;20.90;99.90
14401;DHT22;7285;50.894;5.462;2023-05-07T10:25:51;20.90;99.90
14401;DHT22;7285;50.894;5.462;2023-05-07T10:28:20;20.80;99.90
14401;DHT22;7285;50.894;5.462;2023-05-07T10:31:01;20.70;99.90
14401;DHT22;7285;50.894;5.462;2023-05-07T10:33:32;20.70;99.90
14401;DHT22;7285;50.894;5.462;2023-05-07T10:36:00;20.60;99.90
14401;DHT22;7285;50.894;5.462;2023-05-07T10:38:30;20.40;99.90
14401;DHT22;7285;50.894;5.462;2023-05-07T10:40:57;20.30;99.90
14401;DHT22;7285;50.894;5.462;2023-05-07T10:43:38;20.30;99.90
14401;DHT22;7285;50.894;5.462;2023-05-07T10:46:18;20.10;99.90
14401;DHT22;7285;50.894;5.462;2023-05-07T10:49:07;20.10;99.90
14401;DHT22;7285;50.894;5.462;2023-05-07T10:51:34;19.90;99.90
14401;DHT22;7285;50.894;5.462;2023-05-07T10:54:21;19.90;99.90
14401;DHT22;7285;50.894;5.462;2023-05-07T10:56:49;20.00;99.90
14401;DHT22;7285;50.894;5.462;2023-05-07T10:59:37;19.80;99.90
14401;DHT22;7285;50.894;5.462;2023-05-07T11:02:09;19.60;99.90
14401;DHT22;7285;50.894;5.462;2023-05-07T11:04:39;19.50;1.00
14401;DHT22;7285;50.894;5.462;2023-05-07T11:07:28;19.60;1.00
14401;DHT22;7285;50.894;5.462;2023-05-07T11:10:03;19.70;1.00
14401;DHT22;7285;50.894;5.462;2023-05-07T11:12:50;19.70;1.00
14401;DHT22;7285;50.894;5.462;2023-05-07T11:15:35;19.60;1.00
14401;DHT22;7285;50.894;5.462;2023-05-07T11:18:04;19.50;1.00
14401;DHT22;7285;50.894;5.462;2023-05-07T11:20:45;19.60;1.00
14401;DHT22;7285;50.894;5.462;2023-05-07T11:26:13;19.50;1.00
14401;DHT22;7285;50.894;5.462;2023-05-07T11:28:41;19.50;1.00
14401;DHT22;7285;50.894;5.462;2023-05-07T11:31:09;19.50;1.00
14401;DHT22;7285;50.894;5.462;2023-05-07T11:33:38;19.30;1.00
14401;DHT22;7285;50.894;5.462;2023-05-07T11:36:07;19.40;1.00
14401;DHT22;7285;50.894;5.462;2023-05-07T11:38:35;19.30;1.00
14401;DHT22;7285;50.894;5.462;2023-05-07T11:41:02;19.40;94.90
14401;DHT22;7285;50.894;5.462;2023-05-07T11:43:30;19.40;1.00
14401;DHT22;7285;50.894;5.462;2023-05-07T11:46:05;19.30;1.00
14401;DHT22;7285;50.894;5.462;2023-05-07T11:48:33;19.10;1.00
14401;DHT22;7285;50.894;5.462;2023-05-07T11:51:02;19.10;1.00
14401;DHT22;7285;50.894;5.462;2023-05-07T11:53:36;19.10;20.10
14401;DHT22;7285;50.894;5.462;2023-05-07T11:56:06;19.30;99.90
14401;DHT22;7285;50.894;5.462;2023-05-07T11:58:34;19.20;99.90
14401;DHT22;7285;50.894;5.462;2023-05-07T12:01:01;19.10;99.90
14401;DHT22;7285;50.894;5.462;2023-05-07T12:03:28;19.00;99.90
14401;DHT22;7285;50.894;5.462;2023-05-07T12:05:55;19.00;99.90
14401;DHT22;7285;50.894;5.462;2023-05-07T12:08:23;19.00;99.90
14401;DHT22;7285;50.894;5.462;2023-05-07T12:10:50;19.10;1.00
14401;DHT22;7285;50.894;5.462;2023-05-07T12:13:18;19.10;1.00
14401;DHT22;7285;50.894;5.462;2023-05-07T12:15:45;19.10;1.00
14401;DHT22;7285;50.894;5.462;2023-05-07T12:18:13;19.00;1.00
14401;DHT22;7285;50.894;5.462;2023-05-07T12:20:40;19.00;1.00
14401;DHT22;7285;50.894;5.462;2023-05-07T12:23:07;18.90;1.00
14401;DHT22;7285;50.894;5.462;2023-05-07T12:25:36;18.90;1.00
14401;DHT22;7285;50.894;5.462;2023-05-07T12:28:04;19.00;59.60
14401;DHT22;7285;50.894;5.462;2023-05-07T12:30:31;19.00;99.90
14401;DHT22;7285;50.894;5.462;2023-05-07T12:32:58;19.20;99.90
14401;DHT22;7285;50.894;5.462;2023-05-07T12:35:28;19.20;99.90
14401;DHT22;7285;50.894;5.462;2023-05-07T12:37:56;19.00;1.00
14401;DHT22;7285;50.894;5.462;2023-05-07T12:40:33;19.10;2.50
14401;DHT22;7285;50.894;5.462;2023-05-07T12:43:03;19.10;99.90
14401;DHT22;7285;50.894;5.462;2023-05-07T12:45:30;19.20;99.90
14401;DHT22;7285;50.894;5.462;2023-05-07T12:48:01;19.20;1.00
14401;DHT22;7285;50.894;5.462;2023-05-07T12:50:31;19.20;1.00
14401;DHT22;7285;50.894;5.462;2023-05-07T12:52:59;19.30;1.00
14401;DHT22;7285;50.894;5.462;2023-05-07T12:55:26;19.30;1.00
14401;DHT22;7285;50.894;5.462;2023-05-07T12:57:53;19.20;1.00
14401;DHT22;7285;50.894;5.462;2023-05-07T13:00:34;19.30;1.00
14401;DHT22;7285;50.894;5.462;2023-05-07T13:03:01;19.30;1.00
14401;DHT22;7285;50.894;5.462;2023-05-07T13:05:28;19.10;1.00
14401;DHT22;7285;50.894;5.462;2023-05-07T13:07:56;19.30;1.00
14401;DHT22;7285;50.894;5.462;2023-05-07T13:10:23;19.20;99.90
14401;DHT22;7285;50.894;5.462;2023-05-07T13:12:50;19.30;99.90
14401;DHT22;7285;50.894;5.462;2023-05-07T13:15:17;19.30;99.90
14401;DHT22;7285;50.894;5.462;2023-05-07T13:17:46;19.40;99.90
14401;DHT22;7285;50.894;5.462;2023-05-07T13:20:13;19.60;1.00
14401;DHT22;7285;50.894;5.462;2023-05-07T13:22:40;19.60;99.90
14401;DHT22;7285;50.894;5.462;2023-05-07T13:25:08;19.60;99.90
14401;DHT22;7285;50.894;5.462;2023-05-07T13:27:35;19.60;99.90
14401;DHT22;7285;50.894;5.462;2023-05-07T13:30:03;19.60;99.90
14401;DHT22;7285;50.894;5.462;2023-05-07T13:32:30;19.70;1.00
14401;DHT22;7285;50.894;5.462;2023-05-07T13:34:59;19.70;99.90
14401;DHT22;7285;50.894;5.462;2023-05-07T13:37:26;19.70;99.90
14401;DHT22;7285;50.894;5.462;2023-05-07T13:39:53;19.80;99.90
14401;DHT22;7285;50.894;5.462;2023-05-07T13:42:20;19.80;99.90
14401;DHT22;7285;50.894;5.462;2023-05-07T13:44:47;19.80;99.90
14401;DHT22;7285;50.894;5.462;2023-05-07T13:47:14;19.80;1.00
14401;DHT22;7285;50.894;5.462;2023-05-07T13:49:41;19.80;22.60
14401;DHT22;7285;50.894;5.462;2023-05-07T13:52:09;19.80;1.00
14401;DHT22;7285;50.894;5.462;2023-05-07T13:54:36;19.80;1.00
14401;DHT22;7285;50.894;5.462;2023-05-07T13:57:03;19.60;1.00
14401;DHT22;7285;50.894;5.462;2023-05-07T13:59:30;19.60;1.00
14401;DHT22;7285;50.894;5.462;2023-05-07T14:01:57;19.60;1.00
14401;DHT22;7285;50.894;5.462;2023-05-07T14:04:24;19.60;1.00
14401;DHT22;7285;50.894;5.462;2023-05-07T14:06:51;19.60;1.00
14401;DHT22;7285;50.894;5.462;2023-05-07T14:09:19;19.60;1.00
14401;DHT22;7285;50.894;5.462;2023-05-07T14:11:46;19.60;1.00
14401;DHT22;7285;50.894;5.462;2023-05-07T14:14:16;19.70;1.00
14401;DHT22;7285;50.894;5.462;2023-05-07T14:16:43;19.70;1.00
14401;DHT22;7285;50.894;5.462;2023-05-07T14:19:10;19.70;1.00
14401;DHT22;7285;50.894;5.462;2023-05-07T14:21:37;19.80;1.00
14401;DHT22;7285;50.894;5.462;2023-05-07T14:24:06;19.80;1.00
14401;DHT22;7285;50.894;5.462;2023-05-07T14:26:35;19.80;1.00
14401;DHT22;7285;50.894;5.462;2023-05-07T14:29:02;19.90;1.00
14401;DHT22;7285;50.894;5.462;2023-05-07T14:31:29;19.90;1.00
14401;DHT22;7285;50.894;5.462;2023-05-07T14:33:56;20.00;1.00
14401;DHT22;7285;50.894;5.462;2023-05-07T14:36:24;20.00;1.00
14401;DHT22;7285;50.894;5.462;2023-05-07T14:38:53;20.00;1.00
14401;DHT22;7285;50.894;5.462;2023-05-07T14:41:21;20.10;1.00
14401;DHT22;7285;50.894;5.462;2023-05-07T14:43:50;20.00;1.00
14401;DHT22;7285;50.894;5.462;2023-05-07T14:46:17;20.00;1.00
14401;DHT22;7285;50.894;5.462;2023-05-07T14:48:44;20.00;1.00
14401;DHT22;7285;50.894;5.462;2023-05-07T14:51:13;20.00;1.00
14401;DHT22;7285;50.894;5.462;2023-05-07T14:53:41;20.00;1.00
14401;DHT22;7285;50.894;5.462;2023-05-07T14:56:08;19.90;1.00
14401;DHT22;7285;50.894;5.462;2023-05-07T14:58:35;19.90;1.00
14401;DHT22;7285;50.894;5.462;2023-05-07T15:01:04;20.00;1.00
14401;DHT22;7285;50.894;5.462;2023-05-07T15:03:31;20.00;1.00
14401;DHT22;7285;50.894;5.462;2023-05-07T15:05:58;20.00;1.00
14401;DHT22;7285;50.894;5.462;2023-05-07T15:08:25;19.90;1.00
14401;DHT22;7285;50.894;5.462;2023-05-07T15:10:52;19.80;1.00
14401;DHT22;7285;50.894;5.462;2023-05-07T15:13:19;20.00;1.00
14401;DHT22;7285;50.894;5.462;2023-05-07T15:15:45;19.90;1.00
14401;DHT22;7285;50.894;5.462;2023-05-07T15:18:14;20.00;1.00
14401;DHT22;7285;50.894;5.462;2023-05-07T15:20:41;20.10;1.00
14401;DHT22;7285;50.894;5.462;2023-05-07T15:23:09;20.10;1.00
14401;DHT22;7285;50.894;5.462;2023-05-07T15:25:37;19.90;1.00
14401;DHT22;7285;50.894;5.462;2023-05-07T15:28:04;19.90;1.00
14401;DHT22;7285;50.894;5.462;2023-05-07T15:30:31;20.10;1.00
14401;DHT22;7285;50.894;5.462;2023-05-07T15:32:58;20.10;1.00
14401;DHT22;7285;50.894;5.462;2023-05-07T15:35:27;20.10;1.00
14401;DHT22;7285;50.894;5.462;2023-05-07T15:37:53;20.10;1.00
14401;DHT22;7285;50.894;5.462;2023-05-07T15:40:21;20.30;1.00
14401;DHT22;7285;50.894;5.462;2023-05-07T15:42:48;20.30;1.00
14401;DHT22;7285;50.894;5.462;2023-05-07T15:45:15;20.30;1.00
14401;DHT22;7285;50.894;5.462;2023-05-07T15:47:42;20.30;1.00
14401;DHT22;7285;50.894;5.462;2023-05-07T15:50:09;20.30;1.00
14401;DHT22;7285;50.894;5.462;2023-05-07T15:52:38;20.40;1.00
14401;DHT22;7285;50.894;5.462;2023-05-07T15:55:07;20.40;1.00
14401;DHT22;7285;50.894;5.462;2023-05-07T15:57:34;20.50;1.00
14401;DHT22;7285;50.894;5.462;2023-05-07T16:00:02;20.40;1.00
14401;DHT22;7285;50.894;5.462;2023-05-07T16:02:33;20.30;1.00